sensor_id;sensor_type;location;lat;lon;timestamp;pressure;altitude;pressure_sealevel;temperature;humidity
13732;BME280;6937;56.096;12.664;2023-04-20T00:00:13;102700.41;;;6.17;92.38
13732;BME280;6937;56.096;12.664;2023-04-20T00:02:40;102697.84;;;6.14;94.14
13732;BME280;6937;56.096;12.664;2023-04-20T00:05:06;102688.19;;;6.10;94.63
13732;BME280;6937;56.096;12.664;2023-04-20T00:07:32;102684.66;;;6.10;95.70
13732;BME280;6937;56.096;12.664;2023-04-20T00:10:00;102680.22;;;6.10;95.73
13732;BME280;6937;56.096;12.664;2023-04-20T00:12:25;102670.59;;;6.06;96.80
13732;BME280;6937;56.096;12.664;2023-04-20T00:14:51;102669.78;;;6.03;97.22
13732;BME280;6937;56.096;12.664;2023-04-20T00:17:17;102667.22;;;6.00;98.26
13732;BME280;6937;56.096;12.664;2023-04-20T00:19:42;102669.03;;;5.96;99.03
13732;BME280;6937;56.096;12.664;2023-04-20T00:22:08;102663.72;;;5.96;99.47
13732;BME280;6937;56.096;12.664;2023-04-20T00:24:33;102655.84;;;5.93;100.00
13732;BME280;6937;56.096;12.664;2023-04-20T00:26:58;102655.91;;;5.90;100.00
13732;BME280;6937;56.096;12.664;2023-04-20T00:29:24;102648.84;;;5.89;100.00
13732;BME280;6937;56.096;12.664;2023-04-20T00:31:50;102654.22;;;5.88;100.00
13732;BME280;6937;56.096;12.664;2023-04-20T00:34:15;102648.06;;;5.84;100.00
13732;BME280;6937;56.096;12.664;2023-04-20T00:36:40;102644.53;;;5.83;100.00
13732;BME280;6937;56.096;12.664;2023-04-20T00:39:06;102646.28;;;5.84;100.00
13732;BME280;6937;56.096;12.664;2023-04-20T00:41:31;102641.06;;;5.80;100.00
13732;BME280;6937;56.096;12.664;2023-04-20T00:43:56;102645.59;;;5.76;100.00
13732;BME280;6937;56.096;12.664;2023-04-20T00:46:22;102635.03;;;5.73;100.00
13732;BME280;6937;56.096;12.664;2023-04-20T00:48:49;102638.66;;;5.69;100.00
13732;BME280;6937;56.096;12.664;2023-04-20T00:51:19;102640.41;;;5.70;100.00
13732;BME280;6937;56.096;12.664;2023-04-20T00:53:45;102631.56;;;5.70;100.00
13732;BME280;6937;56.096;12.664;2023-04-20T00:56:12;102637.81;;;5.67;100.00
13732;BME280;6937;56.096;12.664;2023-04-20T00:58:38;102633.47;;;5.65;100.00
13732;BME280;6937;56.096;12.664;2023-04-20T01:01:05;102627.28;;;5.64;100.00
13732;BME280;6937;56.096;12.664;2023-04-20T01:03:31;102629.13;;;5.61;100.00
13732;BME280;6937;56.096;12.664;2023-04-20T01:05:57;102628.28;;;5.59;100.00
13732;BME280;6937;56.096;12.664;2023-04-20T01:08:25;102626.63;;;5.55;100.00
13732;BME280;6937;56.096;12.664;2023-04-20T01:10:53;102623.13;;;5.53;100.00
13732;BME280;6937;56.096;12.664;2023-04-20T01:13:18;102624.00;;;5.52;100.00
13732;BME280;6937;56.096;12.664;2023-04-20T01:15:43;102626.72;;;5.50;100.00
13732;BME280;6937;56.096;12.664;2023-04-20T01:18:09;102617.03;;;5.48;100.00
13732;BME280;6937;56.096;12.664;2023-04-20T01:20:36;102617.94;;;5.47;100.00
13732;BME280;6937;56.096;12.664;2023-04-20T01:23:02;102611.78;;;5.46;100.00
13732;BME280;6937;56.096;12.664;2023-04-20T01:25:27;102614.50;;;5.43;100.00
13732;BME280;6937;56.096;12.664;2023-04-20T01:27:53;102615.41;;;5.42;100.00
13732;BME280;6937;56.096;12.664;2023-04-20T01:30:18;102603.00;;;5.43;100.00
13732;BME280;6937;56.096;12.664;2023-04-20T01:32:44;102603.94;;;5.40;100.00
13732;BME280;6937;56.096;12.664;2023-04-20T01:35:09;102607.59;;;5.36;100.00
13732;BME280;6937;56.096;12.664;2023-04-20T01:37:35;102610.28;;;5.33;100.00
13732;BME280;6937;56.096;12.664;2023-04-20T01:40:01;102611.16;;;5.33;100.00
13732;BME280;6937;56.096;12.664;2023-04-20T01:42:27;102612.94;;;5.33;100.00
13732;BME280;6937;56.096;12.664;2023-04-20T01:44:52;102610.25;;;5.34;100.00
13732;BME280;6937;56.096;12.664;2023-04-20T01:47:18;102609.44;;;5.31;100.00
13732;BME280;6937;56.096;12.664;2023-04-20T01:49:43;102594.50;;;5.28;100.00
13732;BME280;6937;56.096;12.664;2023-04-20T01:52:09;102607.75;;;5.28;100.00
13732;BME280;6937;56.096;12.664;2023-04-20T01:54:34;102595.47;;;5.24;100.00
13732;BME280;6937;56.096;12.664;2023-04-20T01:57:01;102596.41;;;5.20;100.00
13732;BME280;6937;56.096;12.664;2023-04-20T01:59:27;102594.66;;;5.19;100.00
13732;BME280;6937;56.096;12.664;2023-04-20T02:01:52;102594.75;;;5.15;100.00
13732;BME280;6937;56.096;12.664;2023-04-20T02:04:17;102593.94;;;5.13;100.00
13732;BME280;6937;56.096;12.664;2023-04-20T02:06:43;102589.59;;;5.09;100.00
13732;BME280;6937;56.096;12.664;2023-04-20T02:09:08;102579.09;;;5.03;100.00
13732;BME280;6937;56.096;12.664;2023-04-20T02:11:34;102583.56;;;5.01;100.00
13732;BME280;6937;56.096;12.664;2023-04-20T02:13:59;102581.00;;;4.96;100.00
13732;BME280;6937;56.096;12.664;2023-04-20T02:16:25;102576.66;;;4.94;100.00
13732;BME280;6937;56.096;12.664;2023-04-20T02:18:53;102574.09;;;4.87;100.00
13732;BME280;6937;56.096;12.664;2023-04-20T02:21:19;102567.03;;;4.88;100.00
13732;BME280;6937;56.096;12.664;2023-04-20T02:23:44;102565.34;;;4.85;100.00
13732;BME280;6937;56.096;12.664;2023-04-20T02:26:09;102560.97;;;4.83;100.00
13732;BME280;6937;56.096;12.664;2023-04-20T02:28:35;102555.69;;;4.83;100.00
13732;BME280;6937;56.096;12.664;2023-04-20T02:31:01;102555.72;;;4.80;100.00
13732;BME280;6937;56.096;12.664;2023-04-20T02:33:26;102555.75;;;4.78;100.00
13732;BME280;6937;56.096;12.664;2023-04-20T02:35:52;102547.00;;;4.75;100.00
13732;BME280;6937;56.096;12.664;2023-04-20T02:38:17;102538.19;;;4.74;100.00
13732;BME280;6937;56.096;12.664;2023-04-20T02:40:42;102535.63;;;4.70;100.00
13732;BME280;6937;56.096;12.664;2023-04-20T02:43:08;102531.28;;;4.67;100.00
13732;BME280;6937;56.096;12.664;2023-04-20T02:45:33;102528.63;;;4.67;100.00
13732;BME280;6937;56.096;12.664;2023-04-20T02:47:58;102525.09;;;4.67;100.00
13732;BME280;6937;56.096;12.664;2023-04-20T02:50:24;102525.13;;;4.65;100.00
13732;BME280;6937;56.096;12.664;2023-04-20T02:52:50;102526.94;;;4.63;100.00
13732;BME280;6937;56.096;12.664;2023-04-20T02:55:16;102526.13;;;4.60;100.00
13732;BME280;6937;56.096;12.664;2023-04-20T02:57:41;102519.06;;;4.59;100.00
13732;BME280;6937;56.096;12.664;2023-04-20T03:00:07;102516.41;;;4.59;100.00
13732;BME280;6937;56.096;12.664;2023-04-20T03:02:37;102513.78;;;4.59;100.00
13732;BME280;6937;56.096;12.664;2023-04-20T03:05:03;102511.13;;;4.59;100.00
13732;BME280;6937;56.096;12.664;2023-04-20T03:07:29;102505.84;;;4.59;100.00
13732;BME280;6937;56.096;12.664;2023-04-20T03:09:54;102504.06;;;4.58;100.00
13732;BME280;6937;56.096;12.664;2023-04-20T03:12:20;102504.13;;;4.56;100.00
13732;BME280;6937;56.096;12.664;2023-04-20T03:14:46;102490.97;;;4.53;100.00
13732;BME280;6937;56.096;12.664;2023-04-20T03:17:11;102487.50;;;4.48;100.00
13732;BME280;6937;56.096;12.664;2023-04-20T03:19:37;102502.53;;;4.48;100.00
13732;BME280;6937;56.096;12.664;2023-04-20T03:22:02;102503.41;;;4.47;100.00
13732;BME280;6937;56.096;12.664;2023-04-20T03:24:28;102499.03;;;4.46;100.00
13732;BME280;6937;56.096;12.664;2023-04-20T03:26:53;102502.59;;;4.45;100.00
13732;BME280;6937;56.096;12.664;2023-04-20T03:29:19;102505.22;;;4.46;100.00
13732;BME280;6937;56.096;12.664;2023-04-20T03:31:44;102506.13;;;4.45;100.00
13732;BME280;6937;56.096;12.664;2023-04-20T03:34:10;102498.25;;;4.41;100.00
13732;BME280;6937;56.096;12.664;2023-04-20T03:36:36;102492.13;;;4.38;100.00
13732;BME280;6937;56.096;12.664;2023-04-20T03:39:01;102494.81;;;4.35;100.00
13732;BME280;6937;56.096;12.664;2023-04-20T03:41:29;102499.22;;;4.36;100.00
13732;BME280;6937;56.096;12.664;2023-04-20T03:43:55;102495.69;;;4.36;100.00
13732;BME280;6937;56.096;12.664;2023-04-20T03:46:20;102479.88;;;4.31;100.00
13732;BME280;6937;56.096;12.664;2023-04-20T03:48:45;102478.03;;;4.35;100.00
13732;BME280;6937;56.096;12.664;2023-04-20T03:51:11;102485.03;;;4.39;100.00
13732;BME280;6937;56.096;12.664;2023-04-20T03:53:36;102491.13;;;4.43;100.00
13732;BME280;6937;56.096;12.664;2023-04-20T03:56:01;102479.66;;;4.44;100.00
13732;BME280;6937;56.096;12.664;2023-04-20T03:58:27;102484.03;;;4.46;100.00
13732;BME280;6937;56.096;12.664;2023-04-20T04:00:59;102486.56;;;4.51;100.00
13732;BME280;6937;56.096;12.664;2023-04-20T04:03:25;102494.50;;;4.52;100.00
13732;BME280;6937;56.096;12.664;2023-04-20T04:05:50;102482.97;;;4.55;100.00
13732;BME280;6937;56.096;12.664;2023-04-20T04:08:16;102496.19;;;4.56;100.00
13732;BME280;6937;56.096;12.664;2023-04-20T04:10:41;102487.34;;;4.57;100.00
13732;BME280;6937;56.096;12.664;2023-04-20T04:13:07;102496.13;;;4.58;100.00
13732;BME280;6937;56.096;12.664;2023-04-20T04:15:32;102479.34;;;4.59;100.00
13732;BME280;6937;56.096;12.664;2023-04-20T04:17:57;102482.84;;;4.61;100.00
13732;BME280;6937;56.096;12.664;2023-04-20T04:20:23;102484.53;;;4.65;100.00
13732;BME280;6937;56.096;12.664;2023-04-20T04:22:48;102485.34;;;4.68;100.00
13732;BME280;6937;56.096;12.664;2023-04-20T04:25:13;102481.78;;;4.69;100.00
13732;BME280;6937;56.096;12.664;2023-04-20T04:27:39;102493.25;;;4.70;100.00
13732;BME280;6937;56.096;12.664;2023-04-20T04:30:05;102488.81;;;4.72;100.00
13732;BME280;6937;56.096;12.664;2023-04-20T04:32:31;102488.69;;;4.76;100.00
13732;BME280;6937;56.096;12.664;2023-04-20T04:34:59;102493.06;;;4.79;100.00
13732;BME280;6937;56.096;12.664;2023-04-20T04:37:25;102482.47;;;4.79;100.00
13732;BME280;6937;56.096;12.664;2023-04-20T04:39:51;102485.88;;;4.84;100.00
13732;BME280;6937;56.096;12.664;2023-04-20T04:42:16;102480.50;;;4.88;100.00
13732;BME280;6937;56.096;12.664;2023-04-20T04:44:42;102487.53;;;4.91;100.00
13732;BME280;6937;56.096;12.664;2023-04-20T04:47:07;102487.31;;;5.00;100.00
13732;BME280;6937;56.096;12.664;2023-04-20T04:49:33;102487.22;;;5.03;100.00
13732;BME280;6937;56.096;12.664;2023-04-20T04:52:03;102492.41;;;5.09;100.00
13732;BME280;6937;56.096;12.664;2023-04-20T04:54:29;102487.00;;;5.14;100.00
13732;BME280;6937;56.096;12.664;2023-04-20T04:56:55;102489.53;;;5.18;100.00
13732;BME280;6937;56.096;12.664;2023-04-20T04:59:22;102488.50;;;5.25;100.00
13732;BME280;6937;56.096;12.664;2023-04-20T05:01:47;102481.25;;;5.33;100.00
13732;BME280;6937;56.096;12.664;2023-04-20T05:04:13;102487.31;;;5.39;100.00
13732;BME280;6937;56.096;12.664;2023-04-20T05:06:38;102486.25;;;5.46;100.00
13732;BME280;6937;56.096;12.664;2023-04-20T05:09:03;102492.34;;;5.51;100.00
13732;BME280;6937;56.096;12.664;2023-04-20T05:11:29;102478.91;;;5.58;100.00
13732;BME280;6937;56.096;12.664;2023-04-20T05:13:55;102499.94;;;5.66;100.00
13732;BME280;6937;56.096;12.664;2023-04-20T05:16:21;102504.19;;;5.73;100.00
13732;BME280;6937;56.096;12.664;2023-04-20T05:18:46;102501.28;;;5.82;100.00
13732;BME280;6937;56.096;12.664;2023-04-20T05:21:11;102500.31;;;5.88;100.00
13732;BME280;6937;56.096;12.664;2023-04-20T05:23:37;102500.03;;;5.98;100.00
13732;BME280;6937;56.096;12.664;2023-04-20T05:26:02;102498.06;;;6.06;100.00
13732;BME280;6937;56.096;12.664;2023-04-20T05:28:27;102499.56;;;6.15;100.00
13732;BME280;6937;56.096;12.664;2023-04-20T05:30:53;102506.44;;;6.23;100.00
13732;BME280;6937;56.096;12.664;2023-04-20T05:33:19;102506.22;;;6.31;100.00
13732;BME280;6937;56.096;12.664;2023-04-20T05:35:45;102526.38;;;6.40;100.00
13732;BME280;6937;56.096;12.664;2023-04-20T05:38:10;102528.75;;;6.49;100.00
13732;BME280;6937;56.096;12.664;2023-04-20T05:40:35;102516.19;;;6.55;100.00
13732;BME280;6937;56.096;12.664;2023-04-20T05:43:01;102525.66;;;6.64;100.00
13732;BME280;6937;56.096;12.664;2023-04-20T05:45:26;102529.00;;;6.72;100.00
13732;BME280;6937;56.096;12.664;2023-04-20T05:47:55;102533.19;;;6.80;100.00
13732;BME280;6937;56.096;12.664;2023-04-20T05:50:24;102552.47;;;6.87;100.00
13732;BME280;6937;56.096;12.664;2023-04-20T05:52:51;102538.06;;;6.96;100.00
13732;BME280;6937;56.096;12.664;2023-04-20T05:55:17;102543.13;;;7.05;100.00
13732;BME280;6937;56.096;12.664;2023-04-20T05:57:42;102558.81;;;7.12;100.00
13732;BME280;6937;56.096;12.664;2023-04-20T06:00:13;102552.38;;;7.21;100.00
13732;BME280;6937;56.096;12.664;2023-04-20T06:02:40;102548.56;;;7.29;100.00
13732;BME280;6937;56.096;12.664;2023-04-20T06:05:06;102557.13;;;7.39;100.00
13732;BME280;6937;56.096;12.664;2023-04-20T06:07:33;102569.19;;;7.51;100.00
13732;BME280;6937;56.096;12.664;2023-04-20T06:09:58;102568.91;;;7.60;100.00
13732;BME280;6937;56.096;12.664;2023-04-20T06:12:26;102568.59;;;7.69;100.00
13732;BME280;6937;56.096;12.664;2023-04-20T06:14:51;102558.56;;;7.78;100.00
13732;BME280;6937;56.096;12.664;2023-04-20T06:17:17;102575.19;;;7.85;100.00
13732;BME280;6937;56.096;12.664;2023-04-20T06:19:42;102580.13;;;7.97;100.00
13732;BME280;6937;56.096;12.664;2023-04-20T06:22:07;102567.38;;;8.07;100.00
13732;BME280;6937;56.096;12.664;2023-04-20T06:24:34;102568.91;;;8.14;100.00
13732;BME280;6937;56.096;12.664;2023-04-20T06:26:59;102585.50;;;8.22;100.00
13732;BME280;6937;56.096;12.664;2023-04-20T06:29:26;102588.72;;;8.33;100.00
13732;BME280;6937;56.096;12.664;2023-04-20T06:31:51;102581.34;;;8.41;100.00
13732;BME280;6937;56.096;12.664;2023-04-20T06:34:17;102601.38;;;8.53;100.00
13732;BME280;6937;56.096;12.664;2023-04-20T06:36:42;102591.25;;;8.62;100.00
13732;BME280;6937;56.096;12.664;2023-04-20T06:39:08;102601.59;;;8.71;100.00
13732;BME280;6937;56.096;12.664;2023-04-20T06:41:36;102597.78;;;8.79;100.00
13732;BME280;6937;56.096;12.664;2023-04-20T06:44:01;102605.47;;;8.88;100.00
13732;BME280;6937;56.096;12.664;2023-04-20T06:46:26;102605.06;;;8.98;100.00
13732;BME280;6937;56.096;12.664;2023-04-20T06:48:52;102602.13;;;9.06;100.00
13732;BME280;6937;56.096;12.664;2023-04-20T06:51:17;102623.97;;;9.15;100.00
13732;BME280;6937;56.096;12.664;2023-04-20T06:53:42;102626.22;;;9.28;100.00
13732;BME280;6937;56.096;12.664;2023-04-20T06:56:08;102616.13;;;9.36;100.00
13732;BME280;6937;56.096;12.664;2023-04-20T06:58:33;102621.91;;;9.47;100.00
13732;BME280;6937;56.096;12.664;2023-04-20T07:00:58;102631.13;;;9.61;100.00
13732;BME280;6937;56.096;12.664;2023-04-20T07:03:24;102628.13;;;9.70;100.00
13732;BME280;6937;56.096;12.664;2023-04-20T07:05:49;102636.59;;;9.82;100.00
13732;BME280;6937;56.096;12.664;2023-04-20T07:08:15;102627.97;;;9.97;100.00
13732;BME280;6937;56.096;12.664;2023-04-20T07:10:41;102642.56;;;10.10;100.00
13732;BME280;6937;56.096;12.664;2023-04-20T07:13:06;102643.03;;;10.21;100.00
13732;BME280;6937;56.096;12.664;2023-04-20T07:15:32;102637.13;;;10.35;100.00
13732;BME280;6937;56.096;12.664;2023-04-20T07:17:58;102635.63;;;10.49;100.00
13732;BME280;6937;56.096;12.664;2023-04-20T07:20:23;102648.56;;;10.58;100.00
13732;BME280;6937;56.096;12.664;2023-04-20T07:22:48;102643.72;;;10.68;100.00
13732;BME280;6937;56.096;12.664;2023-04-20T07:25:14;102652.22;;;10.78;100.00
13732;BME280;6937;56.096;12.664;2023-04-20T07:27:40;102646.38;;;10.88;100.00
13732;BME280;6937;56.096;12.664;2023-04-20T07:30:09;102652.09;;;11.01;100.00
13732;BME280;6937;56.096;12.664;2023-04-20T07:32:35;102655.06;;;11.13;100.00
13732;BME280;6937;56.096;12.664;2023-04-20T07:35:01;102662.56;;;11.26;100.00
13732;BME280;6937;56.096;12.664;2023-04-20T07:37:28;102670.97;;;11.37;100.00
13732;BME280;6937;56.096;12.664;2023-04-20T07:39:53;102680.25;;;11.48;100.00
13732;BME280;6937;56.096;12.664;2023-04-20T07:42:19;102679.66;;;11.62;100.00
13732;BME280;6937;56.096;12.664;2023-04-20T07:44:46;102697.63;;;11.79;100.00
13732;BME280;6937;56.096;12.664;2023-04-20T07:47:11;102688.88;;;11.94;100.00
13732;BME280;6937;56.096;12.664;2023-04-20T07:49:36;102695.41;;;12.07;100.00
13732;BME280;6937;56.096;12.664;2023-04-20T07:52:03;102678.44;;;12.25;100.00
13732;BME280;6937;56.096;12.664;2023-04-20T07:54:28;102692.97;;;12.38;100.00
13732;BME280;6937;56.096;12.664;2023-04-20T07:56:54;102686.78;;;12.55;99.24
13732;BME280;6937;56.096;12.664;2023-04-20T07:59:19;102696.03;;;12.67;97.04
13732;BME280;6937;56.096;12.664;2023-04-20T08:01:45;102704.88;;;12.86;97.84
13732;BME280;6937;56.096;12.664;2023-04-20T08:04:10;102696.00;;;13.01;97.22
13732;BME280;6937;56.096;12.664;2023-04-20T08:06:36;102700.88;;;13.12;94.46
13732;BME280;6937;56.096;12.664;2023-04-20T08:09:01;102702.31;;;13.19;92.40
13732;BME280;6937;56.096;12.664;2023-04-20T08:11:27;102708.75;;;13.32;91.98
13732;BME280;6937;56.096;12.664;2023-04-20T08:13:53;102718.91;;;13.42;90.97
13732;BME280;6937;56.096;12.664;2023-04-20T08:16:19;102729.94;;;13.53;90.80
13732;BME280;6937;56.096;12.664;2023-04-20T08:18:44;102724.63;;;13.69;90.43
13732;BME280;6937;56.096;12.664;2023-04-20T08:21:10;102731.84;;;13.84;88.79
13732;BME280;6937;56.096;12.664;2023-04-20T08:23:35;102721.06;;;14.01;87.52
13732;BME280;6937;56.096;12.664;2023-04-20T08:26:02;102727.03;;;14.22;87.39
13732;BME280;6937;56.096;12.664;2023-04-20T08:28:27;102737.16;;;14.34;84.79
13732;BME280;6937;56.096;12.664;2023-04-20T08:30:53;102740.03;;;14.47;82.52
13732;BME280;6937;56.096;12.664;2023-04-20T08:33:18;102744.88;;;14.56;80.15
13732;BME280;6937;56.096;12.664;2023-04-20T08:35:43;102741.81;;;14.62;77.27
13732;BME280;6937;56.096;12.664;2023-04-20T08:38:09;102746.06;;;14.66;74.93
13732;BME280;6937;56.096;12.664;2023-04-20T08:40:35;102753.63;;;14.75;73.52
13732;BME280;6937;56.096;12.664;2023-04-20T08:43:02;102747.78;;;14.83;72.93
13732;BME280;6937;56.096;12.664;2023-04-20T08:45:28;102755.41;;;14.90;71.33
13732;BME280;6937;56.096;12.664;2023-04-20T08:47:55;102751.22;;;15.00;70.97
13732;BME280;6937;56.096;12.664;2023-04-20T08:50:22;102753.56;;;15.07;69.83
13732;BME280;6937;56.096;12.664;2023-04-20T08:52:47;102749.59;;;15.12;70.06
13732;BME280;6937;56.096;12.664;2023-04-20T08:55:17;102749.94;;;15.22;70.36
13732;BME280;6937;56.096;12.664;2023-04-20T08:57:42;102758.31;;;15.31;70.68
13732;BME280;6937;56.096;12.664;2023-04-20T09:00:08;102750.91;;;15.51;71.14
13732;BME280;6937;56.096;12.664;2023-04-20T09:02:36;102751.38;;;15.57;68.23
13732;BME280;6937;56.096;12.664;2023-04-20T09:05:02;102742.06;;;15.63;67.90
13732;BME280;6937;56.096;12.664;2023-04-20T09:07:28;102752.38;;;15.70;67.68
13732;BME280;6937;56.096;12.664;2023-04-20T09:09:59;102750.16;;;15.77;66.30
13732;BME280;6937;56.096;12.664;2023-04-20T09:12:26;102750.03;;;15.78;65.31
13732;BME280;6937;56.096;12.664;2023-04-20T09:14:52;102741.47;;;15.86;64.78
13732;BME280;6937;56.096;12.664;2023-04-20T09:17:30;102742.16;;;15.89;63.11
13732;BME280;6937;56.096;12.664;2023-04-20T09:19:55;102757.06;;;15.95;62.72
13732;BME280;6937;56.096;12.664;2023-04-20T09:22:34;102749.84;;;16.10;63.12
13732;BME280;6937;56.096;12.664;2023-04-20T09:25:10;102749.63;;;16.13;62.08
13732;BME280;6937;56.096;12.664;2023-04-20T09:27:35;102752.81;;;16.19;61.99
13732;BME280;6937;56.096;12.664;2023-04-20T09:30:02;102738.63;;;16.30;61.87
13732;BME280;6937;56.096;12.664;2023-04-20T09:32:28;102738.22;;;16.36;61.43
13732;BME280;6937;56.096;12.664;2023-04-20T09:34:54;102738.38;;;16.47;61.61
13732;BME280;6937;56.096;12.664;2023-04-20T09:37:19;102735.66;;;16.61;62.23
13732;BME280;6937;56.096;12.664;2023-04-20T09:39:47;102719.44;;;16.75;62.48
13732;BME280;6937;56.096;12.664;2023-04-20T09:42:13;102721.50;;;16.84;60.59
13732;BME280;6937;56.096;12.664;2023-04-20T09:44:39;102719.34;;;16.89;60.19
13732;BME280;6937;56.096;12.664;2023-04-20T09:47:06;102710.44;;;17.02;60.74
13732;BME280;6937;56.096;12.664;2023-04-20T09:49:32;102708.91;;;17.10;59.79
13732;BME280;6937;56.096;12.664;2023-04-20T09:52:00;102703.97;;;17.17;60.05
13732;BME280;6937;56.096;12.664;2023-04-20T09:54:27;102696.06;;;17.26;59.08
13732;BME280;6937;56.096;12.664;2023-04-20T09:56:53;102687.66;;;17.31;58.67
13732;BME280;6937;56.096;12.664;2023-04-20T09:59:20;102692.06;;;17.45;59.07
13732;BME280;6937;56.096;12.664;2023-04-20T10:01:46;102707.25;;;17.60;59.51
13732;BME280;6937;56.096;12.664;2023-04-20T10:04:11;102697.63;;;17.68;58.42
13732;BME280;6937;56.096;12.664;2023-04-20T10:06:39;102702.91;;;17.70;57.70
13732;BME280;6937;56.096;12.664;2023-04-20T10:09:06;102688.63;;;17.80;57.92
13732;BME280;6937;56.096;12.664;2023-04-20T10:11:37;102689.34;;;17.95;58.15
13732;BME280;6937;56.096;12.664;2023-04-20T10:14:22;102686.19;;;18.01;56.13
13732;BME280;6937;56.096;12.664;2023-04-20T10:17:05;102683.16;;;18.06;56.72
13732;BME280;6937;56.096;12.664;2023-04-20T10:19:42;102685.69;;;18.20;57.46
13732;BME280;6937;56.096;12.664;2023-04-20T10:22:09;102685.78;;;18.31;56.06
13732;BME280;6937;56.096;12.664;2023-04-20T10:24:35;102685.91;;;18.29;55.21
13732;BME280;6937;56.096;12.664;2023-04-20T10:27:03;102684.81;;;18.32;55.86
13732;BME280;6937;56.096;12.664;2023-04-20T10:29:29;102690.38;;;18.42;56.40
13732;BME280;6937;56.096;12.664;2023-04-20T10:31:56;102670.44;;;18.55;56.59
13732;BME280;6937;56.096;12.664;2023-04-20T10:34:34;102667.78;;;18.66;55.07
13732;BME280;6937;56.096;12.664;2023-04-20T10:37:10;102664.94;;;18.68;53.85
13732;BME280;6937;56.096;12.664;2023-04-20T10:39:44;102663.97;;;18.69;54.15
13732;BME280;6937;56.096;12.664;2023-04-20T10:42:09;102675.19;;;18.75;54.35
13732;BME280;6937;56.096;12.664;2023-04-20T10:44:34;102683.53;;;18.96;54.59
13732;BME280;6937;56.096;12.664;2023-04-20T10:47:00;102664.06;;;19.02;53.62
13732;BME280;6937;56.096;12.664;2023-04-20T10:49:26;102650.66;;;19.01;52.39
13732;BME280;6937;56.096;12.664;2023-04-20T10:51:53;102656.81;;;19.03;52.07
13732;BME280;6937;56.096;12.664;2023-04-20T10:54:19;102648.78;;;19.01;51.63
13732;BME280;6937;56.096;12.664;2023-04-20T10:56:46;102644.84;;;19.05;51.46
13732;BME280;6937;56.096;12.664;2023-04-20T10:59:13;102632.06;;;19.18;51.79
13732;BME280;6937;56.096;12.664;2023-04-20T11:01:40;102649.06;;;19.31;50.88
13732;BME280;6937;56.096;12.664;2023-04-20T11:04:06;102639.00;;;19.34;50.15
13732;BME280;6937;56.096;12.664;2023-04-20T11:06:33;102634.66;;;19.31;50.31
13732;BME280;6937;56.096;12.664;2023-04-20T11:08:58;102631.84;;;19.33;50.00
13732;BME280;6937;56.096;12.664;2023-04-20T11:11:25;102629.78;;;19.47;50.35
13732;BME280;6937;56.096;12.664;2023-04-20T11:14:10;102630.13;;;19.54;49.44
13732;BME280;6937;56.096;12.664;2023-04-20T11:16:37;102626.69;;;19.52;49.59
13732;BME280;6937;56.096;12.664;2023-04-20T11:19:03;102613.47;;;19.69;50.35
13732;BME280;6937;56.096;12.664;2023-04-20T11:21:36;102625.19;;;19.81;49.33
13732;BME280;6937;56.096;12.664;2023-04-20T11:24:03;102622.47;;;19.81;49.19
13732;BME280;6937;56.096;12.664;2023-04-20T11:26:37;102622.81;;;19.88;49.84
13732;BME280;6937;56.096;12.664;2023-04-20T11:29:04;102621.34;;;19.95;48.99
13732;BME280;6937;56.096;12.664;2023-04-20T11:31:30;102624.28;;;20.03;49.37
13732;BME280;6937;56.096;12.664;2023-04-20T11:33:55;102619.72;;;20.03;47.97
13732;BME280;6937;56.096;12.664;2023-04-20T11:36:22;102606.75;;;20.07;47.91
13732;BME280;6937;56.096;12.664;2023-04-20T11:38:48;102606.91;;;20.05;47.58
13732;BME280;6937;56.096;12.664;2023-04-20T11:41:14;102600.56;;;20.16;47.93
13732;BME280;6937;56.096;12.664;2023-04-20T11:43:39;102617.19;;;20.34;47.71
13732;BME280;6937;56.096;12.664;2023-04-20T11:46:16;102604.09;;;20.39;46.71
13732;BME280;6937;56.096;12.664;2023-04-20T11:48:42;102594.44;;;20.46;47.00
13732;BME280;6937;56.096;12.664;2023-04-20T11:51:07;102597.69;;;20.60;46.73
13732;BME280;6937;56.096;12.664;2023-04-20T11:53:33;102603.34;;;20.68;46.98
13732;BME280;6937;56.096;12.664;2023-04-20T11:55:59;102598.28;;;20.85;47.12
13732;BME280;6937;56.096;12.664;2023-04-20T11:58:24;102593.03;;;20.93;46.99
13732;BME280;6937;56.096;12.664;2023-04-20T12:00:49;102598.09;;;20.97;46.58
13732;BME280;6937;56.096;12.664;2023-04-20T12:03:15;102591.25;;;21.03;46.14
13732;BME280;6937;56.096;12.664;2023-04-20T12:05:40;102581.84;;;21.07;45.97
13732;BME280;6937;56.096;12.664;2023-04-20T12:08:07;102586.38;;;21.17;45.46
13732;BME280;6937;56.096;12.664;2023-04-20T12:10:32;102588.72;;;21.32;45.58
13732;BME280;6937;56.096;12.664;2023-04-20T12:12:58;102573.25;;;21.32;44.86
13732;BME280;6937;56.096;12.664;2023-04-20T12:15:25;102579.97;;;21.28;45.08
13732;BME280;6937;56.096;12.664;2023-04-20T12:17:50;102580.28;;;21.35;45.16
13732;BME280;6937;56.096;12.664;2023-04-20T12:20:16;102579.31;;;21.45;44.47
13732;BME280;6937;56.096;12.664;2023-04-20T12:22:41;102582.84;;;21.66;44.20
13732;BME280;6937;56.096;12.664;2023-04-20T12:25:07;102560.97;;;21.87;44.55
13732;BME280;6937;56.096;12.664;2023-04-20T12:27:32;102565.25;;;21.90;44.79
13732;BME280;6937;56.096;12.664;2023-04-20T12:29:58;102562.31;;;22.02;45.46
13732;BME280;6937;56.096;12.664;2023-04-20T12:32:23;102558.44;;;22.24;44.61
13732;BME280;6937;56.096;12.664;2023-04-20T12:34:48;102556.00;;;22.21;43.68
13732;BME280;6937;56.096;12.664;2023-04-20T12:37:14;102565.50;;;22.27;44.21
13732;BME280;6937;56.096;12.664;2023-04-20T12:39:40;102556.31;;;22.37;44.03
13732;BME280;6937;56.096;12.664;2023-04-20T12:42:05;102571.63;;;22.48;43.04
13732;BME280;6937;56.096;12.664;2023-04-20T12:44:31;102552.41;;;22.59;42.06